Terminal Aerodrome Forecast
Issued by NWS

Home | Current Version | Previous Version | Text Only | Print | Product List | Glossary On
Versions: 1 2 3 4 5 6 7 8 9 10 11 12 13 14 15 16
000
FTUS45 KFGZ 191858 AAA
TAFGCN
TAF AMD
KGCN 191858Z 1919/2018 22012G21KT 1SM -SN BR OVC005
      TEMPO 2009/2013 4SM -SN BR
     FM201300 23011KT 5SM -SN BR OVC015=

USA.gov is the U.S. government's official web portal to all federal, state and local government web resources and services.